This is the latest recevied weather packets stored in our database for station/object IU1OPQ-3. If no packets are shown the sender has not sent any weather packets the latest 10 day(s).
| Time | Temp. | Humidity | Pressure | Rain* | Wind** | Luminosity | Snow |
|---|---|---|---|---|---|---|---|
| 1777473901 | 20° C | 54% | 1015.9 hPa | 0 mm | - | - | - |
| 1777473001 | 19.44° C | 54% | 1016 hPa | 0 mm | - | - | - |
| 1777472101 | 19.44° C | 53% | 1016.2 hPa | 0 mm | - | - | - |
| 1777471201 | 18.89° C | 57% | 1016.3 hPa | 0 mm | - | - | - |
| 1777470300 | 18.89° C | 57% | 1016.5 hPa | 0 mm | - | - | - |
| 1777469407 | 18.33° C | 63% | 1016.7 hPa | 0 mm | - | - | - |
| 1777468501 | 18.33° C | 57% | 1016.5 hPa | 0 mm | - | - | - |
| 1777467601 | 18.33° C | 62% | 1016.6 hPa | 0 mm | - | - | - |
| 1777466701 | 17.22° C | 68% | 1017 hPa | 0 mm | - | - | - |
| 1777465801 | 17.78° C | 68% | 1016.9 hPa | 0 mm | - | - | - |
| 1777464900 | 17.22° C | 67% | 1016.9 hPa | 0 mm | - | - | - |
| 1777464001 | 17.22° C | 70% | 1017.1 hPa | 0 mm | - | - | - |
| 1777463101 | 17.78° C | 71% | 1017 hPa | 0 mm | - | - | - |
| 1777462201 | 16.67° C | 70% | 1017.1 hPa | 0 mm | - | - | - |
| 1777461301 | 16.11° C | 76% | 1017.3 hPa | 0 mm | - | - | - |
| 1777460401 | 16.11° C | 75% | 1017.3 hPa | 0 mm | - | - | - |
| 1777459501 | 16.67° C | 77% | 1017.4 hPa | 0 mm | - | - | - |
| 1777458601 | 15° C | 78% | 1017.6 hPa | 0 mm | - | - | - |
| 1777457701 | 15° C | 78% | 1017.6 hPa | 0 mm | - | - | - |
| 1777456801 | 15° C | 79% | 1017.6 hPa | 0 mm | - | - | - |
| 1777455901 | 14.44° C | 81% | 1017.6 hPa | 0 mm | - | - | - |
| 1777455001 | 14.44° C | 82% | 1017.4 hPa | 0 mm | - | - | - |
| 1777454101 | 14.44° C | 84% | 1017.2 hPa | 0 mm | - | - | - |
| 1777453201 | 14.44° C | 84% | 1017.4 hPa | 0 mm | - | - | - |
| 1777452301 | 14.44° C | 83% | 1017.2 hPa | 0 mm | - | - | - |
* Rain latest hour (hover to see other rain measurements)
** Current wind speed in m/s (hover to see current wind gust speed)